createdAt,value
2023-04-04T00:03:56.676Z,3.20
2023-04-04T00:09:05.244Z,4.57
2023-04-04T00:14:12.117Z,4.97
2023-04-04T00:19:19.278Z,5.90
2023-04-04T00:24:29.893Z,3.15
2023-04-04T00:29:37.726Z,2.67
2023-04-04T00:34:44.313Z,5.25
2023-04-04T00:39:53.917Z,5.23
2023-04-04T00:45:00.879Z,6.13
2023-04-04T00:50:09.780Z,4.93
2023-04-04T00:55:18.080Z,3.58
2023-04-04T01:00:25.898Z,4.25
2023-04-04T01:05:33.998Z,3.97
2023-04-04T01:10:43.276Z,5.60
2023-04-04T01:15:50.862Z,4.28
2023-04-04T01:21:05.141Z,2.30
2023-04-04T01:26:13.252Z,3.05
2023-04-04T01:31:26.484Z,9.02
2023-04-04T01:36:42.529Z,6.35
2023-04-04T01:41:51.703Z,5.75
2023-04-04T01:46:59.550Z,3.80
2023-04-04T01:52:07.502Z,5.63
2023-04-04T01:57:15.924Z,7.15
2023-04-04T02:02:23.293Z,6.82
2023-04-04T02:07:29.776Z,4.72
2023-04-04T02:12:37.822Z,5.13
2023-04-04T02:17:48.654Z,7.20
2023-04-04T02:22:56.543Z,3.90
2023-04-04T02:28:04.513Z,6.80
2023-04-04T02:33:10.875Z,5.05
2023-04-04T02:38:18.551Z,8.20
2023-04-04T02:43:27.965Z,3.88
2023-04-04T02:48:36.717Z,5.00
2023-04-04T02:53:47.233Z,6.82
2023-04-04T02:59:10.470Z,4.22
2023-04-04T03:04:17.451Z,7.83
2023-04-04T03:09:24.057Z,2.75
2023-04-04T03:14:31.925Z,5.18
2023-04-04T03:19:38.762Z,3.88
2023-04-04T03:24:45.659Z,7.32
2023-04-04T03:29:54.628Z,6.38
2023-04-04T03:35:01.931Z,7.85
2023-04-04T03:40:11.508Z,5.40
2023-04-04T03:45:20.623Z,6.50
2023-04-04T03:50:27.103Z,7.43
2023-04-04T03:55:35.554Z,4.18
2023-04-04T04:00:43.529Z,5.05
2023-04-04T04:05:52.488Z,17.23
2023-04-04T04:16:08.035Z,8.35
2023-04-04T04:21:17.776Z,5.90
2023-04-04T04:31:32.283Z,14.77
2023-04-04T04:36:39.477Z,5.78
2023-04-04T04:42:12.304Z,6.50
2023-04-04T04:47:28.478Z,8.77
2023-04-04T04:52:34.984Z,5.05
2023-04-04T04:57:41.608Z,7.53
2023-04-04T05:03:00.856Z,6.93
2023-04-04T05:08:19.223Z,6.18
2023-04-04T05:13:39.013Z,8.65
2023-04-04T05:18:47.105Z,15.40
2023-04-04T05:23:53.929Z,8.97
2023-04-04T05:29:02.891Z,17.85
2023-04-04T05:34:12.223Z,9.60
2023-04-04T05:39:19.152Z,5.13
2023-04-04T05:44:38.620Z,16.80
2023-04-04T05:49:48.321Z,7.45
2023-04-04T05:54:54.964Z,13.88
2023-04-04T06:00:10.039Z,8.68
2023-04-04T06:05:22.574Z,8.73
2023-04-04T06:10:29.149Z,6.10
2023-04-04T06:15:36.681Z,7.10
2023-04-04T06:20:46.889Z,10.90
2023-04-04T06:25:56.859Z,8.80
2023-04-04T06:31:08.535Z,4.57
2023-04-04T06:36:18.192Z,13.25
2023-04-04T06:41:26.689Z,10.60
2023-04-04T06:46:33.771Z,11.93
2023-04-04T06:51:43.137Z,4.13
2023-04-04T06:56:50.757Z,8.20
2023-04-04T07:01:58.584Z,10.85
2023-04-04T07:07:06.394Z,7.47
2023-04-04T07:12:13.191Z,9.70
2023-04-04T07:17:24.788Z,6.75
2023-04-04T07:22:33.272Z,7.05
2023-04-04T07:27:41.267Z,11.07
2023-04-04T07:32:48.061Z,8.47
2023-04-04T07:37:57.953Z,8.88
2023-04-04T07:43:04.603Z,8.88
2023-04-04T07:48:11.255Z,7.25
2023-04-04T07:53:19.234Z,4.03
2023-04-04T07:58:27.560Z,5.97
2023-04-04T08:03:34.234Z,8.68
2023-04-04T08:08:43.260Z,6.50
2023-04-04T08:13:49.595Z,6.53
2023-04-04T08:18:56.734Z,5.45
2023-04-04T08:24:05.674Z,4.90
2023-04-04T08:29:11.900Z,5.85
2023-04-04T08:34:18.154Z,14.45
2023-04-04T08:39:26.577Z,7.95
2023-04-04T08:44:34.336Z,2.27
2023-04-04T08:49:45.204Z,12.18
2023-04-04T08:54:55.295Z,5.68
2023-04-04T09:00:02.966Z,6.18
2023-04-04T09:05:13.853Z,7.00
2023-04-04T09:10:23.805Z,5.60
2023-04-04T09:15:30.888Z,6.63
2023-04-04T09:20:42.406Z,2.10
2023-04-04T09:31:06.114Z,4.13
2023-04-04T09:36:18.135Z,4.80
2023-04-04T09:41:28.900Z,3.03
2023-04-04T09:46:37.584Z,4.60
2023-04-04T09:51:44.106Z,1.17
2023-04-04T09:56:54.315Z,5.25
2023-04-04T10:02:03.337Z,5.85
2023-04-04T10:12:26.183Z,2.47
2023-04-04T10:17:38.079Z,6.25
2023-04-04T10:22:47.846Z,4.03
2023-04-04T10:27:55.974Z,3.85
2023-04-04T10:33:08.866Z,4.13
2023-04-04T10:38:16.275Z,9.75
2023-04-04T10:43:28.584Z,2.90
2023-04-04T10:48:35.873Z,2.70
2023-04-04T10:53:45.366Z,4.65
2023-04-04T10:59:12.216Z,2.42
2023-04-04T11:04:21.217Z,4.25
2023-04-04T11:09:50.365Z,2.53
2023-04-04T11:15:14.797Z,4.38
2023-04-04T11:20:24.060Z,7.07
2023-04-04T11:25:43.297Z,4.55
2023-04-04T11:36:42.694Z,3.30
2023-04-04T11:41:54.287Z,3.95
2023-04-04T11:47:11.511Z,4.43
2023-04-04T11:52:21.476Z,2.10
2023-04-04T11:57:27.930Z,3.50
2023-04-04T12:02:36.870Z,2.17
2023-04-04T12:07:43.882Z,7.18
2023-04-04T12:12:50.749Z,5.90
2023-04-04T12:17:58.871Z,4.22
2023-04-04T12:23:05.605Z,2.73
2023-04-04T12:28:13.456Z,3.42
2023-04-04T12:33:23.208Z,4.43
2023-04-04T12:38:30.919Z,4.22
2023-04-04T12:43:43.282Z,3.17
2023-04-04T12:48:52.947Z,3.33
2023-04-04T12:54:00.110Z,3.60
2023-04-04T12:59:11.219Z,4.53
2023-04-04T13:04:21.500Z,3.35
2023-04-04T13:09:29.254Z,3.63
2023-04-04T13:15:00.365Z,3.28
2023-04-04T13:20:10.092Z,2.90
2023-04-04T13:25:18.733Z,3.70
2023-04-04T13:30:26.540Z,5.68
2023-04-04T13:35:35.038Z,52.95
2023-04-04T13:40:41.597Z,47.53
2023-04-04T13:45:48.162Z,28.58
2023-04-04T13:50:59.822Z,4.82
2023-04-04T14:01:16.002Z,4.43
2023-04-04T14:06:24.038Z,7.03
2023-04-04T14:11:31.452Z,4.22
2023-04-04T14:16:37.970Z,2.67
2023-04-04T14:21:46.844Z,4.05
2023-04-04T14:26:53.458Z,4.15
2023-04-04T14:32:00.006Z,7.05
2023-04-04T14:37:08.564Z,3.88
2023-04-04T14:42:15.338Z,4.30
2023-04-04T14:47:22.438Z,3.85
2023-04-04T14:52:31.420Z,2.15
2023-04-04T15:03:05.654Z,2.63
2023-04-04T15:08:14.910Z,3.00
2023-04-04T15:13:21.314Z,3.03
2023-04-04T15:18:27.873Z,3.75
2023-04-04T15:23:35.709Z,4.32
2023-04-04T15:28:43.678Z,3.92
2023-04-04T15:33:53.540Z,5.73
2023-04-04T15:39:02.578Z,5.38
2023-04-04T15:44:09.179Z,3.00
2023-04-04T15:49:17.970Z,5.45
2023-04-04T15:54:29.222Z,6.10
2023-04-04T15:59:35.505Z,5.32
2023-04-04T16:04:41.943Z,3.47
2023-04-04T16:09:50.150Z,4.35
2023-04-04T16:14:56.860Z,5.33
2023-04-04T16:20:03.785Z,4.68
2023-04-04T16:25:12.450Z,6.30
2023-04-04T16:30:21.397Z,3.30
2023-04-04T16:35:29.411Z,4.28
2023-04-04T16:40:38.085Z,3.30
2023-04-04T16:45:46.211Z,4.50
2023-04-04T16:50:53.861Z,4.80
2023-04-04T16:56:02.039Z,4.10
2023-04-04T17:01:08.652Z,5.03
2023-04-04T17:06:15.752Z,6.20
2023-04-04T17:11:24.171Z,7.55
2023-04-04T17:16:30.955Z,10.45
2023-04-04T17:21:37.586Z,13.85
2023-04-04T17:26:48.053Z,12.38
2023-04-04T17:31:56.562Z,8.57
2023-04-04T17:37:03.860Z,11.77
2023-04-04T17:42:12.130Z,9.55
2023-04-04T17:47:20.239Z,7.00
2023-04-04T17:52:29.876Z,5.97
2023-04-04T17:57:38.799Z,8.27
2023-04-04T18:02:46.798Z,9.00
2023-04-04T18:07:55.058Z,6.10
2023-04-04T18:13:06.171Z,8.18
2023-04-04T18:18:14.185Z,9.88
2023-04-04T18:28:30.545Z,6.90
2023-04-04T18:33:37.043Z,9.98
2023-04-04T18:38:48.023Z,14.45
2023-04-04T18:43:57.824Z,14.25
2023-04-04T18:49:05.671Z,21.30
2023-04-04T18:54:17.165Z,22.10
2023-04-04T18:59:28.523Z,11.38
2023-04-04T19:04:39.085Z,12.35
2023-04-04T19:09:48.865Z,19.02
2023-04-04T19:14:57.615Z,18.80
2023-04-04T19:20:06.221Z,18.45
2023-04-04T19:25:15.366Z,31.75
2023-04-04T19:30:45.726Z,23.15
2023-04-04T19:35:56.487Z,33.72
2023-04-04T19:41:10.210Z,42.35
2023-04-04T19:46:28.382Z,36.85
2023-04-04T19:51:54.920Z,34.50
2023-04-04T19:57:03.975Z,31.92
2023-04-04T20:02:54.609Z,129.15
2023-04-04T20:08:03.171Z,466.98
2023-04-04T20:13:11.671Z,297.85
2023-04-04T20:18:27.654Z,258.20
2023-04-04T20:23:42.306Z,187.20
2023-04-04T20:28:50.455Z,134.70
2023-04-04T20:34:00.984Z,196.68
2023-04-04T20:39:41.720Z,276.73
2023-04-04T20:44:48.884Z,228.48
2023-04-04T20:49:57.522Z,156.85
2023-04-04T20:55:09.098Z,99.05
2023-04-04T21:00:41.718Z,95.20
2023-04-04T21:05:50.728Z,84.07
2023-04-04T21:11:00.193Z,79.65
2023-04-04T21:16:12.056Z,114.38
2023-04-04T21:21:21.657Z,85.13
2023-04-04T21:26:36.902Z,59.95
2023-04-04T21:31:44.564Z,53.05
2023-04-04T21:36:56.905Z,51.28
2023-04-04T21:42:08.455Z,40.50
2023-04-04T21:47:15.922Z,69.82
2023-04-04T21:52:24.477Z,66.95
2023-04-04T21:57:30.831Z,47.13
2023-04-04T22:02:40.167Z,77.15
2023-04-04T22:07:47.913Z,55.53
2023-04-04T22:12:55.275Z,58.03
2023-04-04T22:18:04.147Z,53.78
2023-04-04T22:28:25.260Z,35.03
2023-04-04T22:33:34.271Z,40.47
2023-04-04T22:43:50.884Z,67.57
2023-04-04T22:49:06.132Z,55.28
2023-04-04T22:54:18.645Z,48.40
2023-04-04T22:59:25.170Z,42.58
2023-04-04T23:04:32.085Z,28.02
2023-04-04T23:09:39.847Z,45.47
2023-04-04T23:14:47.589Z,39.22
2023-04-04T23:19:56.977Z,41.13
2023-04-04T23:25:09.254Z,46.75
2023-04-04T23:30:16.119Z,41.25
2023-04-04T23:35:22.646Z,44.28
2023-04-04T23:40:30.592Z,32.88
2023-04-04T23:45:41.735Z,49.33
2023-04-04T23:50:50.445Z,25.80
2023-04-04T23:55:58.557Z,23.98
